createdAt,value
2019-02-09T00:01:41.110Z,3.83
2019-02-09T00:04:09.225Z,3.63
2019-02-09T00:06:37.469Z,4.80
2019-02-09T00:12:09.583Z,5.93
2019-02-09T00:14:37.825Z,5.87
2019-02-09T00:17:05.243Z,4.87
2019-02-09T00:19:33.156Z,4.30
2019-02-09T00:22:01.441Z,3.13
2019-02-09T00:24:29.684Z,3.73
2019-02-09T00:26:57.583Z,3.87
2019-02-09T00:29:25.791Z,3.93
2019-02-09T00:31:54.375Z,3.57
2019-02-09T00:34:22.891Z,3.83
2019-02-09T00:36:51.225Z,4.70
2019-02-09T00:39:19.526Z,3.77
2019-02-09T00:41:47.379Z,3.83
2019-02-09T00:44:15.931Z,3.90
2019-02-09T00:46:44.485Z,4.50
2019-02-09T00:49:12.960Z,4.10
2019-02-09T00:51:41.350Z,3.80
2019-02-09T00:54:08.800Z,4.80
2019-02-09T00:56:37.327Z,4.70
2019-02-09T00:59:05.561Z,4.63
2019-02-09T01:01:33.866Z,4.43
2019-02-09T01:04:01.999Z,5.00
2019-02-09T01:06:30.406Z,4.60
2019-02-09T01:08:58.275Z,4.90
2019-02-09T01:11:26.879Z,4.83
2019-02-09T01:13:55.490Z,4.80
2019-02-09T01:16:24.069Z,5.23
2019-02-09T01:18:52.545Z,5.00
2019-02-09T01:21:20.830Z,5.50
2019-02-09T01:23:48.304Z,4.80
2019-02-09T01:26:17.021Z,5.00
2019-02-09T01:28:45.271Z,5.43
2019-02-09T01:31:13.906Z,5.07
2019-02-09T01:33:42.133Z,6.07
2019-02-09T01:36:10.656Z,5.80
2019-02-09T01:38:39.196Z,5.17
2019-02-09T01:41:07.844Z,5.50
2019-02-09T01:43:36.174Z,6.13
2019-02-09T01:46:04.501Z,6.50
2019-02-09T01:48:33.159Z,6.17
2019-02-09T01:51:01.540Z,6.07
2019-02-09T01:53:29.884Z,6.53
2019-02-09T01:55:58.254Z,7.07
2019-02-09T01:58:26.338Z,6.47
2019-02-09T02:00:54.799Z,7.07
2019-02-09T02:03:23.021Z,6.50
2019-02-09T02:05:50.509Z,7.20
2019-02-09T02:11:21.877Z,7.13
2019-02-09T02:13:50.144Z,6.47
2019-02-09T02:16:18.384Z,8.65
2019-02-09T02:18:47.110Z,6.80
2019-02-09T02:21:14.991Z,6.53
2019-02-09T02:23:43.526Z,6.83
2019-02-09T02:26:11.874Z,6.23
2019-02-09T02:28:40.145Z,7.63
2019-02-09T02:31:08.029Z,7.23
2019-02-09T02:33:35.585Z,7.40
2019-02-09T02:36:44.188Z,7.10
2019-02-09T02:39:12.709Z,7.67
2019-02-09T02:41:40.863Z,7.57
2019-02-09T02:44:09.492Z,8.03
2019-02-09T02:46:37.950Z,7.20
2019-02-09T02:49:06.459Z,8.40
2019-02-09T02:51:34.764Z,7.60
2019-02-09T02:54:03.078Z,7.83
2019-02-09T02:56:30.974Z,8.03
2019-02-09T02:58:59.558Z,8.30
2019-02-09T03:01:27.834Z,8.83
2019-02-09T03:03:56.509Z,7.93
2019-02-09T03:06:24.670Z,7.93
2019-02-09T03:08:53.295Z,7.53
2019-02-09T03:11:21.806Z,8.37
2019-02-09T03:13:50.129Z,8.33
2019-02-09T03:16:18.402Z,8.27
2019-02-09T03:18:46.731Z,9.03
2019-02-09T03:21:15.362Z,8.30
2019-02-09T03:23:44.011Z,9.37
2019-02-09T03:26:12.593Z,8.47
2019-02-09T03:28:41.219Z,8.23
2019-02-09T03:31:08.726Z,9.20
2019-02-09T03:33:37.256Z,9.87
2019-02-09T03:36:05.193Z,9.10
2019-02-09T03:41:12.985Z,9.23
2019-02-09T03:43:41.213Z,9.70
2019-02-09T03:46:09.452Z,11.15
2019-02-09T03:48:37.472Z,9.37
2019-02-09T03:51:05.705Z,8.73
2019-02-09T03:53:33.908Z,9.00
2019-02-09T03:56:01.753Z,8.90
2019-02-09T03:58:29.585Z,8.13
2019-02-09T04:00:57.851Z,9.10
2019-02-09T04:03:26.039Z,8.23
2019-02-09T04:05:54.252Z,7.80
2019-02-09T04:08:22.563Z,8.37
2019-02-09T04:10:51.076Z,8.13
2019-02-09T04:13:18.617Z,8.13
2019-02-09T04:15:46.827Z,8.00
2019-02-09T04:18:55.457Z,8.60
2019-02-09T04:21:23.752Z,8.60
2019-02-09T04:23:51.585Z,8.10
2019-02-09T04:26:20.279Z,6.87
2019-02-09T04:28:48.812Z,7.90
2019-02-09T04:31:16.944Z,6.77
2019-02-09T04:33:45.459Z,7.07
2019-02-09T04:36:13.717Z,7.23
2019-02-09T04:38:42.294Z,7.00
2019-02-09T04:41:10.485Z,7.57
2019-02-09T04:43:38.768Z,7.47
2019-02-09T04:46:07.287Z,8.27
2019-02-09T04:48:35.532Z,7.77
2019-02-09T04:51:03.728Z,7.40
2019-02-09T04:53:32.452Z,6.90
2019-02-09T04:56:01.103Z,5.70
2019-02-09T04:58:29.271Z,4.93
2019-02-09T05:00:57.870Z,2.93
2019-02-09T05:03:26.135Z,2.40
2019-02-09T05:05:54.825Z,1.50
2019-02-09T05:08:22.751Z,1.50
2019-02-09T05:10:51.392Z,1.07
2019-02-09T05:13:19.675Z,0.90
2019-02-09T05:15:47.968Z,1.03
2019-02-09T05:18:15.874Z,1.05
2019-02-09T05:20:44.112Z,1.00
2019-02-09T05:23:12.645Z,1.00
2019-02-09T05:25:40.868Z,0.90
2019-02-09T05:28:09.218Z,0.70
2019-02-09T05:30:37.818Z,1.20
2019-02-09T05:33:06.582Z,0.93
2019-02-09T05:35:35.248Z,1.20
2019-02-09T05:38:03.053Z,1.10
2019-02-09T05:40:31.258Z,0.90
2019-02-09T05:42:59.875Z,0.80
2019-02-09T05:45:28.705Z,1.07
2019-02-09T05:47:57.480Z,0.97
2019-02-09T05:50:25.477Z,1.47
2019-02-09T05:56:14.259Z,1.20
2019-02-09T05:58:42.586Z,0.93
2019-02-09T06:01:10.860Z,1.23
2019-02-09T06:03:38.792Z,1.00
2019-02-09T06:06:06.718Z,1.30
2019-02-09T06:08:35.010Z,1.00
2019-02-09T06:11:03.692Z,1.07
2019-02-09T06:13:31.970Z,1.30
2019-02-09T06:16:00.565Z,1.17
2019-02-09T06:18:28.830Z,1.37
2019-02-09T06:20:57.357Z,1.10
2019-02-09T06:23:25.651Z,1.30
2019-02-09T06:25:53.992Z,1.20
2019-02-09T06:28:22.603Z,1.50
2019-02-09T06:30:51.072Z,1.27
2019-02-09T06:33:19.360Z,1.43
2019-02-09T06:35:47.952Z,1.37
2019-02-09T06:38:16.327Z,1.50
2019-02-09T06:40:44.698Z,2.30
2019-02-09T06:43:13.367Z,1.30
2019-02-09T06:45:42.002Z,1.50
2019-02-09T06:48:29.828Z,1.40
2019-02-09T06:51:09.646Z,1.30
2019-02-09T06:53:38.311Z,1.43
2019-02-09T06:56:37.818Z,1.80
2019-02-09T06:59:06.544Z,1.50
2019-02-09T07:01:34.847Z,1.70
2019-02-09T07:04:14.641Z,1.70
2019-02-09T07:06:43.316Z,1.20
2019-02-09T07:09:11.543Z,1.30
2019-02-09T07:11:39.051Z,1.70
2019-02-09T07:17:09.262Z,2.03
2019-02-09T07:19:37.630Z,2.70
2019-02-09T07:22:06.008Z,3.23
2019-02-09T07:24:33.881Z,2.70
2019-02-09T07:30:14.556Z,2.20
2019-02-09T07:32:43.147Z,4.23
2019-02-09T07:35:12.039Z,3.43
2019-02-09T07:37:42.350Z,4.23
2019-02-09T07:43:12.862Z,2.00
2019-02-09T07:45:41.173Z,1.87
2019-02-09T07:48:09.163Z,2.63
2019-02-09T07:50:37.508Z,15.63
2019-02-09T07:53:05.017Z,23.50
2019-02-09T07:55:33.661Z,6.97
2019-02-09T07:58:01.905Z,2.00
2019-02-09T08:03:32.200Z,1.90
2019-02-09T08:06:00.793Z,1.70
2019-02-09T08:08:28.707Z,1.97
2019-02-09T08:10:57.007Z,1.90
2019-02-09T08:13:25.217Z,1.80
2019-02-09T08:15:53.826Z,1.93
2019-02-09T08:18:22.415Z,1.83
2019-02-09T08:20:50.679Z,2.50
2019-02-09T08:23:18.678Z,2.50
2019-02-09T08:28:27.488Z,1.60
2019-02-09T08:30:55.815Z,1.83
2019-02-09T08:33:24.505Z,1.60
2019-02-09T08:35:52.837Z,1.87
2019-02-09T08:42:01.273Z,1.83
2019-02-09T08:44:29.483Z,1.50
2019-02-09T08:46:57.839Z,1.90
2019-02-09T08:49:25.462Z,1.30
2019-02-09T08:51:54.256Z,2.00
2019-02-09T08:54:22.493Z,2.30
2019-02-09T08:56:50.762Z,2.50
2019-02-09T08:59:19.262Z,1.30
2019-02-09T09:01:47.848Z,2.87
2019-02-09T09:04:16.138Z,3.50
2019-02-09T09:06:44.826Z,2.20
2019-02-09T09:09:13.091Z,3.20
2019-02-09T09:11:41.635Z,1.60
2019-02-09T09:14:10.281Z,2.00
2019-02-09T09:16:37.893Z,1.53
2019-02-09T09:19:06.576Z,1.57
2019-02-09T09:21:35.229Z,1.60
2019-02-09T09:24:03.651Z,1.17
2019-02-09T09:26:31.960Z,1.37
2019-02-09T09:29:00.682Z,1.40
2019-02-09T09:31:29.501Z,1.20
2019-02-09T09:33:57.761Z,1.10
2019-02-09T09:36:26.292Z,2.67
2019-02-09T09:38:54.738Z,1.30
2019-02-09T09:41:23.109Z,1.50
2019-02-09T09:43:51.713Z,1.67
2019-02-09T09:46:20.165Z,1.83
2019-02-09T09:48:48.817Z,2.30
2019-02-09T09:51:17.499Z,1.47
2019-02-09T09:53:45.863Z,1.33
2019-02-09T09:56:14.436Z,1.13
2019-02-09T09:58:42.728Z,1.47
2019-02-09T10:01:11.466Z,2.63
2019-02-09T10:03:39.897Z,2.60
2019-02-09T10:06:08.600Z,1.80
2019-02-09T10:08:36.881Z,1.83
2019-02-09T10:11:05.556Z,1.90
2019-02-09T10:13:34.256Z,1.50
2019-02-09T10:16:02.548Z,1.40
2019-02-09T10:18:31.116Z,1.83
2019-02-09T10:20:59.421Z,1.30
2019-02-09T10:23:27.017Z,1.30
2019-02-09T10:25:54.930Z,1.20
2019-02-09T10:28:23.647Z,2.87
2019-02-09T10:30:51.581Z,2.63
2019-02-09T10:33:20.231Z,1.60
2019-02-09T10:35:47.868Z,1.63
2019-02-09T10:38:16.159Z,2.00
2019-02-09T10:40:44.436Z,3.93
2019-02-09T10:43:12.624Z,3.40
2019-02-09T10:45:40.683Z,3.07
2019-02-09T10:48:08.880Z,2.10
2019-02-09T10:50:39.406Z,1.70
2019-02-09T10:53:08.159Z,2.00
2019-02-09T10:55:36.601Z,1.53
2019-02-09T10:58:05.371Z,1.60
2019-02-09T11:00:54.339Z,2.10
2019-02-09T11:03:22.929Z,1.90
2019-02-09T11:05:51.221Z,1.60
2019-02-09T11:08:19.081Z,1.13
2019-02-09T11:13:50.194Z,2.50
2019-02-09T11:16:18.809Z,1.23
2019-02-09T11:18:47.504Z,1.30
2019-02-09T11:21:15.825Z,1.10
2019-02-09T11:23:43.754Z,1.47
2019-02-09T11:26:12.364Z,1.20
2019-02-09T11:28:40.656Z,1.50
2019-02-09T11:31:08.509Z,1.70
2019-02-09T11:33:36.758Z,1.80
2019-02-09T11:36:05.268Z,1.70
2019-02-09T11:38:33.544Z,2.13
2019-02-09T11:41:02.197Z,1.40
2019-02-09T11:43:30.928Z,3.23
2019-02-09T11:45:59.650Z,2.70
2019-02-09T11:48:27.592Z,6.60
2019-02-09T11:50:55.902Z,3.43
2019-02-09T11:53:24.346Z,1.50
2019-02-09T11:55:52.973Z,5.47
2019-02-09T11:58:21.564Z,1.40
2019-02-09T12:00:51.975Z,9.63
2019-02-09T12:03:20.358Z,2.97
2019-02-09T12:05:49.002Z,7.60
2019-02-09T12:08:17.254Z,2.17
2019-02-09T12:10:45.796Z,2.13
2019-02-09T12:13:14.058Z,2.30
2019-02-09T12:16:22.752Z,1.77
2019-02-09T12:18:50.682Z,3.90
2019-02-09T12:21:18.880Z,2.43
2019-02-09T12:23:46.327Z,1.70
2019-02-09T12:26:13.887Z,1.83
2019-02-09T12:31:43.535Z,2.20
2019-02-09T12:34:11.948Z,2.10
2019-02-09T12:36:40.212Z,1.87
2019-02-09T12:39:49.776Z,3.83
2019-02-09T12:42:18.496Z,1.87
2019-02-09T12:44:46.786Z,3.47
2019-02-09T12:47:15.387Z,2.50
2019-02-09T12:49:44.009Z,2.67
2019-02-09T12:52:12.669Z,2.10
2019-02-09T12:54:41.043Z,2.03
2019-02-09T12:57:09.309Z,1.70
2019-02-09T12:59:37.580Z,1.40
2019-02-09T13:02:06.075Z,1.50
2019-02-09T13:04:34.488Z,1.30
2019-02-09T13:07:03.262Z,1.50
2019-02-09T13:09:31.297Z,2.30
2019-02-09T13:11:59.226Z,2.30
2019-02-09T13:14:27.107Z,1.93
2019-02-09T13:16:55.384Z,1.90
2019-02-09T13:19:23.359Z,2.40
2019-02-09T13:24:53.634Z,1.57
2019-02-09T13:27:22.197Z,2.07
2019-02-09T13:29:50.366Z,1.80
2019-02-09T13:32:18.798Z,1.60
2019-02-09T13:34:47.338Z,1.50
2019-02-09T13:37:15.904Z,1.50
2019-02-09T13:39:44.199Z,1.83
2019-02-09T13:42:12.827Z,7.27
2019-02-09T13:44:41.474Z,8.27
2019-02-09T13:47:10.149Z,4.10
2019-02-09T13:49:37.609Z,6.93
2019-02-09T13:52:06.432Z,3.27
2019-02-09T13:54:35.025Z,3.07
2019-02-09T13:57:03.627Z,3.90
2019-02-09T14:02:33.924Z,2.60
2019-02-09T14:05:02.016Z,4.53
2019-02-09T14:07:30.715Z,2.00
2019-02-09T14:09:59.284Z,1.90
2019-02-09T14:12:27.185Z,1.80
2019-02-09T14:14:54.718Z,1.70
2019-02-09T14:17:22.585Z,2.10
2019-02-09T14:19:50.649Z,2.60
2019-02-09T14:22:19.363Z,3.33
2019-02-09T14:24:47.665Z,5.40
2019-02-09T14:27:17.840Z,3.37
2019-02-09T14:32:27.379Z,2.90
2019-02-09T14:34:55.628Z,3.30
2019-02-09T14:37:23.885Z,2.57
2019-02-09T14:39:52.460Z,2.63
2019-02-09T14:42:21.195Z,2.27
2019-02-09T14:44:49.448Z,2.40
2019-02-09T14:47:17.342Z,2.50
2019-02-09T14:49:46.023Z,2.10
2019-02-09T14:52:14.719Z,2.87
2019-02-09T14:54:43.446Z,2.43
2019-02-09T14:57:12.317Z,2.10
2019-02-09T14:59:40.594Z,2.03
2019-02-09T15:05:11.618Z,2.00
2019-02-09T15:07:39.533Z,2.00
2019-02-09T15:10:09.148Z,1.73
2019-02-09T15:12:38.029Z,2.40
2019-02-09T15:15:10.340Z,2.50
2019-02-09T15:17:38.720Z,2.20
2019-02-09T15:20:11.863Z,2.20
2019-02-09T15:22:40.496Z,2.10
2019-02-09T15:25:09.262Z,2.90
2019-02-09T15:27:37.865Z,4.67
2019-02-09T15:30:08.180Z,5.67
2019-02-09T15:32:36.927Z,8.73
2019-02-09T15:35:07.191Z,6.00
2019-02-09T15:37:35.266Z,9.43
2019-02-09T15:43:12.064Z,4.63
2019-02-09T15:45:39.910Z,4.37
2019-02-09T15:48:07.805Z,4.40
2019-02-09T15:50:36.389Z,4.30
2019-02-09T15:53:04.368Z,3.73
2019-02-09T15:55:32.378Z,3.30
2019-02-09T15:58:00.401Z,4.10
2019-02-09T16:00:28.003Z,4.00
2019-02-09T16:05:57.994Z,3.60
2019-02-09T16:08:25.898Z,3.13
2019-02-09T16:10:54.060Z,4.13
2019-02-09T16:13:22.446Z,6.07
2019-02-09T16:15:50.767Z,4.43
2019-02-09T16:18:18.806Z,3.20
2019-02-09T16:20:47.501Z,3.37
2019-02-09T16:23:15.419Z,3.70
2019-02-09T16:25:43.393Z,2.73
2019-02-09T16:30:52.977Z,2.15
2019-02-09T16:36:02.765Z,2.23
2019-02-09T16:38:31.548Z,3.03
2019-02-09T16:40:59.959Z,3.07
2019-02-09T16:43:28.548Z,2.10
2019-02-09T16:45:56.700Z,1.60
2019-02-09T16:48:25.618Z,1.80
2019-02-09T16:50:54.333Z,2.00
2019-02-09T16:53:22.178Z,1.70
2019-02-09T16:55:50.904Z,1.93
2019-02-09T16:58:19.169Z,2.07
2019-02-09T17:00:46.803Z,1.90
2019-02-09T17:03:15.111Z,1.60
2019-02-09T17:05:43.488Z,1.50
2019-02-09T17:08:11.473Z,2.00
2019-02-09T17:10:39.737Z,2.10
2019-02-09T17:16:30.937Z,2.00
2019-02-09T17:18:59.347Z,1.67
2019-02-09T17:21:27.526Z,1.80
2019-02-09T17:24:08.171Z,1.63
2019-02-09T17:26:36.469Z,1.50
2019-02-09T17:29:05.185Z,2.10
2019-02-09T17:31:33.833Z,1.57
2019-02-09T17:34:02.120Z,1.53
2019-02-09T17:36:30.420Z,1.87
2019-02-09T17:38:58.671Z,2.03
2019-02-09T17:41:26.661Z,1.57
2019-02-09T17:43:54.930Z,2.33
2019-02-09T17:46:23.492Z,2.30
2019-02-09T17:48:51.303Z,1.77
2019-02-09T17:51:19.590Z,2.00
2019-02-09T17:53:47.974Z,2.10
2019-02-09T17:56:16.258Z,2.20
2019-02-09T17:58:44.938Z,2.20
2019-02-09T18:01:14.539Z,2.33
2019-02-09T18:03:42.637Z,1.70
2019-02-09T18:06:11.443Z,1.93
2019-02-09T18:08:39.814Z,1.83
2019-02-09T18:11:08.507Z,2.30
2019-02-09T18:13:36.789Z,2.20
2019-02-09T18:16:05.543Z,2.37
2019-02-09T18:18:34.181Z,2.27
2019-02-09T18:21:02.434Z,1.43
2019-02-09T18:23:30.752Z,1.80
2019-02-09T18:25:58.952Z,2.20
2019-02-09T18:28:27.377Z,1.53
2019-02-09T18:30:55.779Z,1.97
2019-02-09T18:33:23.649Z,1.57
2019-02-09T18:39:12.874Z,1.90
2019-02-09T18:41:41.644Z,2.20
2019-02-09T18:44:10.824Z,1.93
2019-02-09T18:46:39.516Z,2.97
2019-02-09T18:49:10.075Z,2.27
2019-02-09T18:51:38.755Z,1.80
2019-02-09T18:54:07.508Z,2.20
2019-02-09T18:56:35.295Z,1.87
2019-02-09T19:02:44.361Z,2.30
2019-02-09T19:05:13.395Z,2.17
2019-02-09T19:11:05.762Z,1.83
2019-02-09T19:13:34.694Z,2.10
2019-02-09T19:16:03.238Z,2.63
2019-02-09T19:18:31.117Z,1.70
2019-02-09T19:21:00.939Z,1.73
2019-02-09T19:26:38.227Z,2.77
2019-02-09T19:29:07.326Z,1.90
2019-02-09T19:31:47.928Z,2.07
2019-02-09T19:34:16.910Z,1.83
2019-02-09T19:37:04.979Z,2.40
2019-02-09T19:39:45.223Z,2.70
2019-02-09T19:42:13.133Z,1.80
2019-02-09T19:44:42.062Z,2.40
2019-02-09T19:47:11.104Z,2.50
2019-02-09T19:49:40.148Z,2.87
2019-02-09T19:52:09.160Z,3.10
2019-02-09T19:54:37.848Z,4.60
2019-02-09T20:00:07.551Z,6.00
2019-02-09T20:02:36.552Z,3.10
2019-02-09T20:05:19.553Z,5.10
2019-02-09T20:07:49.603Z,9.87
2019-02-09T20:10:37.733Z,4.63
2019-02-09T20:13:06.666Z,5.93
2019-02-09T20:15:35.063Z,23.50
2019-02-09T20:18:03.373Z,9.90
2019-02-09T20:20:31.693Z,3.53
2019-02-09T20:23:00.672Z,3.07
2019-02-09T20:25:28.665Z,5.33
2019-02-09T20:27:57.022Z,5.70
2019-02-09T20:30:44.652Z,3.43
2019-02-09T20:33:12.906Z,2.87
2019-02-09T20:35:41.227Z,1.90
2019-02-09T20:38:09.326Z,2.50
2019-02-09T20:40:40.259Z,4.07
2019-02-09T20:43:10.074Z,3.63
2019-02-09T20:45:38.385Z,2.73
2019-02-09T20:48:06.898Z,2.73
2019-02-09T20:50:35.619Z,2.60
2019-02-09T20:56:17.587Z,2.70
2019-02-09T21:01:27.336Z,3.80
2019-02-09T21:03:55.928Z,4.30
2019-02-09T21:06:24.617Z,5.10
2019-02-09T21:08:53.348Z,5.53
2019-02-09T21:11:22.086Z,7.00
2019-02-09T21:13:50.413Z,4.83
2019-02-09T21:16:19.043Z,4.13
2019-02-09T21:18:47.738Z,4.97
2019-02-09T21:21:15.734Z,5.03
2019-02-09T21:23:44.131Z,7.00
2019-02-09T21:26:12.522Z,6.87
2019-02-09T21:28:40.829Z,8.03
2019-02-09T21:31:08.819Z,7.33
2019-02-09T21:33:37.196Z,5.90
2019-02-09T21:36:05.254Z,4.53
2019-02-09T21:38:33.481Z,5.07
2019-02-09T21:41:01.738Z,5.17
2019-02-09T21:46:53.346Z,8.70
2019-02-09T21:49:21.745Z,7.57
2019-02-09T21:51:50.174Z,9.67
2019-02-09T21:54:30.568Z,10.10
2019-02-09T21:56:58.548Z,11.30
2019-02-09T21:59:27.236Z,8.87
2019-02-09T22:01:56.167Z,7.23
2019-02-09T22:04:24.838Z,7.07
2019-02-09T22:06:53.461Z,7.20
2019-02-09T22:09:22.164Z,8.60
2019-02-09T22:11:50.967Z,7.50
2019-02-09T22:14:19.280Z,6.70
2019-02-09T22:16:47.577Z,3.70
2019-02-09T22:19:15.854Z,3.20
2019-02-09T22:21:43.599Z,2.57
2019-02-09T22:24:23.604Z,3.70
2019-02-09T22:26:51.527Z,4.47
2019-02-09T22:29:19.928Z,4.60
2019-02-09T22:31:48.230Z,3.90
2019-02-09T22:34:16.490Z,4.10
2019-02-09T22:36:56.199Z,4.67
2019-02-09T22:39:36.734Z,4.70
2019-02-09T22:42:05.451Z,4.40
2019-02-09T22:44:33.330Z,4.57
2019-02-09T22:47:01.560Z,5.30
2019-02-09T22:49:30.184Z,8.57
2019-02-09T22:51:58.531Z,5.37
2019-02-09T22:54:27.289Z,6.00
2019-02-09T22:56:55.714Z,4.83
2019-02-09T22:59:24.077Z,4.90
2019-02-09T23:01:51.986Z,4.50
2019-02-09T23:04:58.395Z,4.10
2019-02-09T23:07:29.108Z,4.27
2019-02-09T23:09:57.520Z,4.00
2019-02-09T23:12:25.402Z,3.70
2019-02-09T23:14:53.777Z,4.07
2019-02-09T23:17:22.420Z,4.10
2019-02-09T23:19:50.319Z,3.47
2019-02-09T23:22:18.306Z,5.10
2019-02-09T23:24:46.017Z,6.23
2019-02-09T23:27:14.166Z,7.50
2019-02-09T23:29:42.458Z,8.13
2019-02-09T23:32:10.824Z,6.77
2019-02-09T23:34:39.068Z,6.73
2019-02-09T23:37:07.314Z,4.77
2019-02-09T23:48:35.490Z,8.23
2019-02-09T23:51:04.066Z,7.83
2019-02-09T23:53:32.267Z,5.67
2019-02-09T23:56:00.897Z,4.13
2019-02-09T23:58:29.542Z,3.40
